Flight Track Log - Related Links

Times and Time Zones

All times are in EST time to prevent confusion due to time zone crossing. See the ASQ5740 flight status page for this flight to view local times or setup timezone preferences in your user account.

Time Position Orientation Groundspeed Altitude Reporting Facility
EST Latitude Longitude Course Direction KTS MPH feet Rate Location/Type
Sun 01:02:21 PM 38.8667 -77.4333 226° Southwest 201 231 3,300  Level Potomac TRACON
Sun 01:03:21 PM 38.8000 -77.4333 180° South 244 281 5,900 2,500 Climbing Potomac TRACON
Sun 01:04:00 PM 38.6645 -77.8172 238° Southwest  Level Estimated
Sun 01:04:21 PM 38.7333 -77.4500 191° South 256 295 8,300  Level Potomac TRACON
Sun 01:05:00 PM 38.5936 -77.9061 238° Southwest  Level Estimated
Sun 01:05:21 PM 38.6667 -77.4833 201° Southwest 280 322 9,900  Level Potomac TRACON
Sun 01:05:59 PM 38.6042 -77.5017 193° South 323 372 10,000 545 Climbing Washington Center
Sun 01:06:00 PM 38.5226 -77.9948 226° Southwest  Level Estimated
Sun 01:07:00 PM 38.4516 -78.0834 226° Southwest  Level Estimated
Sun 01:07:00 PM 38.5036 -77.5311 193° South 368 423 10,800  Level Washington Center
Sun 01:08:00 PM 38.4156 -77.5631 196° South 374 430 12,300 1,488 Climbing Washington Center
Sun 01:09:01 PM 38.3453 -77.6514 225° Southwest 358 412 13,800 1,488 Climbing Washington Center
Sun 01:10:01 PM 38.2811 -77.7447 229° Southwest 351 404 15,300 1,525 Climbing Washington Center
Sun 01:10:59 PM 38.2189 -77.8408 231° Southwest 351 404 16,800 1,424 Climbing Washington Center
Sun 01:11:59 PM 38.1567 -77.9339 230° Southwest 351 404 18,100 1,388 Climbing Washington Center
Sun 01:13:00 PM 38.0964 -78.0272 231° Southwest 351 404 19,600 1,525 Climbing Washington Center
Sun 01:14:01 PM 38.0361 -78.1200 230° Southwest 346 398 21,200 1,311 Climbing Washington Center
Sun 01:14:59 PM 37.9800 -78.2050 230° Southwest 338 389 22,200 857 Climbing Washington Center
Sun 01:16:00 PM 37.9156 -78.2975 229° Southwest 343 395 22,900 639 Climbing Washington Center
Sun 01:17:01 PM 37.8506 -78.3928 229° Southwest 355 409 23,500 655 Climbing Washington Center
Sun 01:17:59 PM 37.7858 -78.4847 228° Southwest 355 409 24,200 814 Climbing Washington Center
Sun 01:18:59 PM 37.7125 -78.5897 229° Southwest 355 409 25,100 744 Climbing Washington Center
Sun 01:20:00 PM 37.6453 -78.6867 229° Southwest 360 414 25,700 639 Climbing Washington Center
Sun 01:21:01 PM 37.5761 -78.7808 227° Southwest 360 414 26,400 694 Climbing Washington Center
Sun 01:22:01 PM 37.5086 -78.8800 229° Southwest 365 420 27,100 712 Climbing Washington Center
Sun 01:22:59 PM 37.4458 -78.9664 228° Southwest 370 426 27,800 446 Climbing Washington Center
Sun 01:24:02 PM 37.3764 -79.0625 228° Southwest 375 432 28,000 100 Climbing Washington Center
Sun 01:24:59 PM 37.3025 -79.1664 228° Southwest 381 438 28,000  Level Washington Center
Sun 01:25:59 PM 37.2283 -79.2697 228° Southwest 392 451 28,000  Level Washington Center
Sun 01:27:00 PM 37.1561 -79.3808 231° Southwest 405 466 28,000  Level Washington Center
Sun 01:28:01 PM 37.0839 -79.4867 229° Southwest 405 466 28,000  Level Washington Center
Sun 01:28:59 PM 37.0003 -79.6100 230° Southwest 419 482 28,000  Level Washington Center
Sun 01:30:00 PM 36.9258 -79.7203 230° Southwest 419 482 28,000  Level Washington Center
Sun 01:32:11 PM 36.7619 -79.9578 229° Southwest 418 481 28,000  Level Atlanta Center
Sun 01:33:11 PM 36.6922 -80.0572 229° Southwest 418 481 28,000  Level Atlanta Center
Sun 01:34:11 PM 36.6186 -80.1642 229° Southwest 418 481 28,000  Level Atlanta Center
Sun 01:35:11 PM 36.5428 -80.2714 229° Southwest 423 487 28,000 -750 Level Atlanta Center
Sun 01:36:11 PM 36.4272 -80.3181 198° South 412 474 26,500 -1,600 Descending Atlanta Center
Sun 01:37:11 PM 36.2994 -80.3625 196° South 427 491 24,800 -1,600 Descending Atlanta Center
Sun 01:38:11 PM 36.1858 -80.4036 196° South 427 491 23,300 -1,500 Descending Atlanta Center
Sun 01:39:11 PM 36.0808 -80.4522 201° Southwest 422 486 21,800 -1,450 Descending Atlanta Center
Sun 01:40:11 PM 35.9714 -80.4878 195° South 416 479 20,400 -900 Descending Atlanta Center
Sun 01:41:11 PM 35.8742 -80.5150 193° South 405 466 20,000 -200 Descending Atlanta Center
Sun 01:42:11 PM 35.7708 -80.5478 194° South 400 460 20,000  Level Atlanta Center
Sun 01:43:11 PM 35.7214 -80.6444 238° Southwest 355 409 20,000 -450 Level Atlanta Center
Sun 01:44:11 PM 35.6469 -80.7472 228° Southwest 368 423 19,100 -1,211 Descending Atlanta Center
Sun 01:45:05 PM 35.5978 -80.8589 242° Southwest 372 428 17,700 -1,700 Descending Atlanta Center
Sun 01:45:11 PM 35.5897 -80.8719 233° Southwest 370 426 17,400 -1,200 Descending Atlanta Center
Sun 01:45:35 PM 35.5700 -80.9164 241° Southwest 372 428 17,100 -1,100 Descending Atlanta Center
Sun 01:46:11 PM 35.5361 -80.9736 234° Southwest 375 432 16,300 -1,279 Descending Atlanta Center
Sun 01:46:36 PM 35.5144 -81.0256 243° Southwest 370 426 15,800 -1,500 Descending Atlanta Center
Sun 01:47:11 PM 35.4783 -81.0831 232° Southwest 380 437 14,800 -1,527 Descending Atlanta Center
Sun 01:47:31 PM 35.4603 -81.1194 239° Southwest 372 428 14,400 -800 Descending Atlanta Center
Sun 01:48:11 PM 35.4225 -81.1919 237° Southwest 380 437 14,000 -269 Descending Atlanta Center
Sun 01:48:38 PM 35.3983 -81.2361 236° Southwest 358 412 14,100 -200 Climbing Atlanta Center
Sun 01:49:11 PM 35.3683 -81.2906 236° Southwest 375 432 13,800 -984 Descending Atlanta Center
Sun 01:49:39 PM 35.3444 -81.3397 239° Southwest 359 413 13,100 -1,500 Descending Atlanta Center
Sun 01:50:11 PM 35.3119 -81.3919 233° Southwest 375 432 12,300 -1,377 Descending Atlanta Center
Sun 01:50:40 PM 35.2944 -81.4433 247° West 356 410 11,700 -1,300 Descending Atlanta Center
Sun 01:51:11 PM 35.2661 -81.4847 230° Southwest 375 432 11,000 -1,121 Descending Atlanta Center
Sun 01:52:11 PM 35.2181 -81.5831 239° Southwest 362 417 10,000 -500 Descending Atlanta Center
Sun 01:53:11 PM 35.1572 -81.6686 229° Southwest 343 395 10,000  Level Atlanta Center
Sun 01:54:11 PM 35.0939 -81.7467 225° Southwest 332 382 10,000 -50 Level Atlanta Center
Sun 01:55:11 PM 35.0389 -81.8242 229° Southwest 318 366 9,900 -500 Descending Atlanta Center
Sun 01:56:11 PM 34.9919 -81.8864 227° Southwest 283 326 9,000 -1,400 Descending Atlanta Center
Sun 01:57:11 PM 34.9450 -81.9433 225° Southwest 262 302 7,100 -2,050 Descending Atlanta Center
Sun 01:58:11 PM 34.8981 -82.0053 227° Southwest 248 285 4,900 -1,550 Descending Atlanta Center
Sun 01:59:11 PM 34.8553 -82.0669 230° Southwest 248 285 4,000 -450 Descending Atlanta Center
Sun 02:00:11 PM 34.8083 -82.1289 227° Southwest 248 285 4,000 -350 Level Atlanta Center
Sun 02:01:11 PM 34.7633 -82.1828 225° Southwest 242 278 3,300 -500 Descending Atlanta Center
Sun 02:02:11 PM 34.7200 -82.2242 218° Southwest 226 260 3,000 -150 Descending Atlanta Center
Sun 02:03:11 PM 34.6850 -82.2656 224° Southwest 203 234 3,000  Level Atlanta Center
Sun 02:04:11 PM 34.6628 -82.3139 241° Southwest 190 219 3,000  Level Atlanta Center
Sun 02:05:11 PM 34.7133 -82.3331 343° North 114 131 3,000  Level Atlanta Center
Sun 02:06:11 PM 34.7714 -82.3092 19° North 148 170 3,000 -350 Level Atlanta Center
Sun 02:07:11 PM 34.8231 -82.2778 27° Northeast 171 197 2,300 -700 Descending Atlanta Center

Login

Don't have an account? Register now (free) for customized features, flight alerts, and more!